Time,TemperatureF,DewpointF,PressureIn,WindDirection,WindDirectionDegrees,WindSpeedMPH,WindSpeedGustMPH,Humidity,HourlyPrecipIn,Conditions,Clouds,dailyrainin,SoftwareType,DateUTC
2013-11-24 00:07:00,37.6,25.0,30.20,NE,40,0.0,1.0,62,0.00,,,0.00,weatherlink.com 1.10,2013-11-24 05:07:00,
2013-11-24 00:22:00,37.4,24.0,30.20,NE,40,1.0,2.0,60,0.00,,,0.00,weatherlink.com 1.10,2013-11-24 05:22:00,
2013-11-24 00:37:00,37.8,27.0,30.20,NNE,12,0.0,0.0,65,0.00,,,0.00,weatherlink.com 1.10,2013-11-24 05:37:00,
2013-11-24 00:52:00,37.4,29.0,30.21,NNE,12,1.0,2.0,71,0.00,,,0.00,weatherlink.com 1.10,2013-11-24 05:52:00,
2013-11-24 01:07:00,37.7,26.0,30.21,NE,38,2.0,3.0,62,0.00,,,0.00,weatherlink.com 1.10,2013-11-24 06:07:00,
2013-11-24 01:22:00,38.1,26.0,30.21,NE,38,1.0,2.0,62,0.00,,,0.00,weatherlink.com 1.10,2013-11-24 06:22:00,
2013-11-24 01:37:00,37.9,25.0,30.22,NE,38,0.0,1.0,61,0.00,,,0.00,weatherlink.com 1.10,2013-11-24 06:37:00,
2013-11-24 01:52:00,37.7,25.0,30.23,NE,38,0.0,1.0,61,0.00,,,0.00,weatherlink.com 1.10,2013-11-24 06:52:00,
2013-11-24 02:07:00,37.4,25.0,30.23,NE,38,0.0,1.0,62,0.00,,,0.00,weatherlink.com 1.10,2013-11-24 07:07:00,
2013-11-24 02:22:00,36.8,25.0,30.24,SSE,157,0.0,3.0,63,0.00,,,0.00,weatherlink.com 1.10,2013-11-24 07:22:00,
2013-11-24 02:37:00,36.4,26.0,30.25,SE,132,0.0,1.0,66,0.00,,,0.00,weatherlink.com 1.10,2013-11-24 07:37:00,
2013-11-24 02:52:00,35.7,26.0,30.26,SE,132,0.0,0.0,67,0.00,,,0.00,weatherlink.com 1.10,2013-11-24 07:52:00,
2013-11-24 03:08:00,35.4,24.0,30.27,NNW,340,0.0,1.0,64,0.00,,,0.00,weatherlink.com 1.10,2013-11-24 08:08:00,
2013-11-24 03:23:00,35.1,24.0,30.27,NNW,340,0.0,1.0,65,0.00,,,0.00,weatherlink.com 1.10,2013-11-24 08:23:00,
2013-11-24 03:38:00,35.0,22.0,30.27,ENE,70,2.0,3.0,60,0.00,,,0.00,weatherlink.com 1.10,2013-11-24 08:38:00,
2013-11-24 03:53:00,35.0,22.0,30.27,ENE,71,1.0,5.0,59,0.00,,,0.00,weatherlink.com 1.10,2013-11-24 08:53:00,
2013-11-24 04:08:00,34.7,22.0,30.28,NE,51,2.0,4.0,59,0.00,,,0.00,weatherlink.com 1.10,2013-11-24 09:08:00,
2013-11-24 04:23:00,34.2,21.0,30.29,NE,49,0.0,3.0,58,0.00,,,0.00,weatherlink.com 1.10,2013-11-24 09:23:00,
2013-11-24 04:38:00,33.6,20.0,30.30,NE,34,2.0,3.0,58,0.00,,,0.00,weatherlink.com 1.10,2013-11-24 09:38:00,
2013-11-24 04:53:00,33.0,20.0,30.30,ENE,73,1.0,4.0,58,0.00,,,0.00,weatherlink.com 1.10,2013-11-24 09:53:00,
2013-11-24 05:08:00,32.5,18.0,30.31,ENE,72,2.0,4.0,56,0.00,,,0.00,weatherlink.com 1.10,2013-11-24 10:08:00,
2013-11-24 05:23:00,31.9,18.0,30.32,NE,47,1.0,6.0,57,0.00,,,0.00,weatherlink.com 1.10,2013-11-24 10:23:00,
2013-11-24 05:38:00,31.4,18.0,30.33,NE,47,1.0,3.0,57,0.00,,,0.00,weatherlink.com 1.10,2013-11-24 10:38:00,
2013-11-24 05:53:00,31.0,17.0,30.34,ENE,57,1.0,3.0,57,0.00,,,0.00,weatherlink.com 1.10,2013-11-24 10:53:00,
2013-11-24 06:08:00,30.8,17.0,30.34,East,93,3.0,5.0,57,0.00,,,0.00,weatherlink.com 1.10,2013-11-24 11:08:00,
2013-11-24 06:23:00,30.6,17.0,30.35,NE,36,1.0,5.0,57,0.00,,,0.00,weatherlink.com 1.10,2013-11-24 11:23:00,
2013-11-24 06:38:00,30.5,16.0,30.36,ENE,69,2.0,6.0,56,0.00,,,0.00,weatherlink.com 1.10,2013-11-24 11:38:00,
2013-11-24 06:53:00,30.2,16.0,30.36,NE,53,3.0,4.0,55,0.00,,,0.00,weatherlink.com 1.10,2013-11-24 11:53:00,
2013-11-24 07:08:00,30.2,15.0,30.37,ENE,73,2.0,5.0,53,0.00,,,0.00,weatherlink.com 1.10,2013-11-24 12:08:00,
2013-11-24 07:23:00,30.1,15.0,30.38,NE,40,1.0,4.0,53,0.00,,,0.00,weatherlink.com 1.10,2013-11-24 12:23:00,
2013-11-24 07:38:00,30.3,14.0,30.39,NNE,32,2.0,5.0,51,0.00,,,0.00,weatherlink.com 1.10,2013-11-24 12:38:00,
2013-11-24 07:53:00,30.8,14.0,30.39,North,5,1.0,7.0,49,0.00,,,0.00,weatherlink.com 1.10,2013-11-24 12:53:00,
2013-11-24 08:08:00,31.6,13.0,30.40,ESE,113,4.0,5.0,46,0.00,,,0.00,weatherlink.com 1.10,2013-11-24 13:08:00,
2013-11-24 08:23:00,32.5,13.0,30.41,NNE,26,2.0,6.0,45,0.00,,,0.00,weatherlink.com 1.10,2013-11-24 13:23:00,
2013-11-24 08:38:00,33.0,12.0,30.41,ENE,67,3.0,9.0,42,0.00,,,0.00,weatherlink.com 1.10,2013-11-24 13:38:00,
2013-11-24 08:53:00,33.4,11.0,30.42,NE,42,1.0,8.0,40,0.00,,,0.00,weatherlink.com 1.10,2013-11-24 13:53:00,
2013-11-24 09:09:00,34.3,10.0,30.43,ENE,76,5.0,10.0,37,0.00,,,0.00,weatherlink.com 1.10,2013-11-24 14:09:00,
2013-11-24 09:24:00,35.3,10.0,30.44,East,80,3.0,9.0,35,0.00,,,0.00,weatherlink.com 1.10,2013-11-24 14:24:00,
2013-11-24 09:39:00,35.2,9.0,30.45,ENE,69,3.0,17.0,33,0.00,,,0.00,weatherlink.com 1.10,2013-11-24 14:39:00,
2013-11-24 09:54:00,35.6,9.0,30.45,NE,42,2.0,8.0,33,0.00,,,0.00,weatherlink.com 1.10,2013-11-24 14:54:00,
2013-11-24 10:09:00,35.9,9.0,30.46,NE,44,2.0,10.0,32,0.00,,,0.00,weatherlink.com 1.10,2013-11-24 15:09:00,
2013-11-24 10:24:00,36.5,8.0,30.47,NNE,32,2.0,8.0,30,0.00,,,0.00,weatherlink.com 1.10,2013-11-24 15:24:00,
2013-11-24 10:39:00,37.2,8.0,30.47,ENE,62,2.0,7.0,30,0.00,,,0.00,weatherlink.com 1.10,2013-11-24 15:39:00,
2013-11-24 10:54:00,38.1,9.0,30.47,East,96,5.0,10.0,30,0.00,,,0.00,weatherlink.com 1.10,2013-11-24 15:54:00,
2013-11-24 11:09:00,38.4,9.0,30.46,ENE,63,3.0,7.0,29,0.00,,,0.00,weatherlink.com 1.10,2013-11-24 16:09:00,
2013-11-24 11:24:00,39.1,8.0,30.46,ENE,67,2.0,5.0,28,0.00,,,0.00,weatherlink.com 1.10,2013-11-24 16:24:00,
2013-11-24 11:39:00,39.7,9.0,30.45,NNW,338,2.0,7.0,28,0.00,,,0.00,weatherlink.com 1.10,2013-11-24 16:39:00,
2013-11-24 11:54:00,41.0,8.0,30.45,ENE,63,2.0,4.0,26,0.00,,,0.00,weatherlink.com 1.10,2013-11-24 16:54:00,
2013-11-24 12:09:00,41.1,9.0,30.44,NE,44,2.0,5.0,27,0.00,,,0.00,weatherlink.com 1.10,2013-11-24 17:09:00,
2013-11-24 12:24:00,41.6,8.0,30.43,East,93,1.0,10.0,25,0.00,,,0.00,weatherlink.com 1.10,2013-11-24 17:24:00,
2013-11-24 12:39:00,41.7,11.0,30.43,ENE,72,2.0,3.0,28,0.00,,,0.00,weatherlink.com 1.10,2013-11-24 17:39:00,
2013-11-24 12:54:00,42.1,10.0,30.42,NE,53,1.0,8.0,27,0.00,,,0.00,weatherlink.com 1.10,2013-11-24 17:54:00,
2013-11-24 13:09:00,42.3,10.0,30.42,NNW,327,2.0,5.0,27,0.00,,,0.00,weatherlink.com 1.10,2013-11-24 18:09:00,
2013-11-24 13:24:00,43.1,12.0,30.42,SE,142,3.0,3.0,28,0.00,,,0.00,weatherlink.com 1.10,2013-11-24 18:24:00,
2013-11-24 13:39:00,43.5,11.0,30.42,ESE,109,1.0,7.0,26,0.00,,,0.00,weatherlink.com 1.10,2013-11-24 18:39:00,
2013-11-24 13:54:00,43.4,10.0,30.41,NE,46,2.0,8.0,25,0.00,,,0.00,weatherlink.com 1.10,2013-11-24 18:54:00,
2013-11-24 14:09:00,44.0,11.0,30.41,South,170,2.0,6.0,26,0.00,,,0.00,weatherlink.com 1.10,2013-11-24 19:09:00,
2013-11-24 14:24:00,44.1,11.0,30.40,NE,44,1.0,6.0,26,0.00,,,0.00,weatherlink.com 1.10,2013-11-24 19:24:00,
2013-11-24 14:39:00,44.2,9.0,30.39,ENE,71,3.0,3.0,24,0.00,,,0.00,weatherlink.com 1.10,2013-11-24 19:39:00,
2013-11-24 14:54:00,44.7,11.0,30.40,ESE,120,1.0,8.0,25,0.00,,,0.00,weatherlink.com 1.10,2013-11-24 19:54:00,
2013-11-24 15:09:00,45.1,11.0,30.40,NE,38,1.0,5.0,25,0.00,,,0.00,weatherlink.com 1.10,2013-11-24 20:09:00,
2013-11-24 15:24:00,44.8,12.0,30.40,NNW,336,2.0,6.0,26,0.00,,,0.00,weatherlink.com 1.10,2013-11-24 20:24:00,
2013-11-24 15:39:00,44.5,11.0,30.40,NNE,23,1.0,8.0,25,0.00,,,0.00,weatherlink.com 1.10,2013-11-24 20:39:00,
2013-11-24 15:54:00,44.7,11.0,30.41,NNE,32,3.0,5.0,25,0.00,,,0.00,weatherlink.com 1.10,2013-11-24 20:54:00,
2013-11-24 16:09:00,43.9,13.0,30.41,East,97,1.0,6.0,28,0.00,,,0.00,weatherlink.com 1.10,2013-11-24 21:09:00,
2013-11-24 16:24:00,42.2,10.0,30.41,NE,48,0.0,5.0,27,0.00,,,0.00,weatherlink.com 1.10,2013-11-24 21:24:00,
2013-11-24 16:39:00,41.3,9.0,30.41,NE,55,0.0,4.0,27,0.00,,,0.00,weatherlink.com 1.10,2013-11-24 21:39:00,
2013-11-24 16:54:00,40.7,11.0,30.42,NE,44,0.0,2.0,30,0.00,,,0.00,weatherlink.com 1.10,2013-11-24 21:54:00,
2013-11-24 17:09:00,40.0,13.0,30.42,East,97,0.0,2.0,33,0.00,,,0.00,weatherlink.com 1.10,2013-11-24 22:09:00,
2013-11-24 17:24:00,39.2,15.0,30.43,ESE,108,0.0,1.0,37,0.00,,,0.00,weatherlink.com 1.10,2013-11-24 22:24:00,
2013-11-24 17:39:00,38.3,15.0,30.44,ESE,109,0.0,0.0,38,0.00,,,0.00,weatherlink.com 1.10,2013-11-24 22:39:00,
2013-11-24 17:54:00,37.3,15.0,30.44,ESE,109,0.0,1.0,40,0.00,,,0.00,weatherlink.com 1.10,2013-11-24 22:54:00,
2013-11-24 18:09:00,36.5,12.0,30.45,ESE,109,0.0,1.0,37,0.00,,,0.00,weatherlink.com 1.10,2013-11-24 23:09:00,
2013-11-24 18:25:00,36.0,15.0,30.46,ESE,109,0.0,1.0,42,0.00,,,0.00,weatherlink.com 1.10,2013-11-24 23:25:00,
2013-11-24 18:40:00,35.3,15.0,30.46,ESE,109,0.0,1.0,44,0.00,,,0.00,weatherlink.com 1.10,2013-11-24 23:40:00,
2013-11-24 18:55:00,34.8,14.0,30.48,ESE,109,0.0,1.0,43,0.00,,,0.00,weatherlink.com 1.10,2013-11-24 23:55:00,
2013-11-24 19:10:00,34.5,13.0,30.48,ESE,109,0.0,2.0,41,0.00,,,0.00,weatherlink.com 1.10,2013-11-25 00:10:00,
2013-11-24 19:25:00,34.3,14.0,30.49,ESE,109,0.0,1.0,43,0.00,,,0.00,weatherlink.com 1.10,2013-11-25 00:25:00,
2013-11-24 19:40:00,33.9,13.0,30.50,ESE,109,0.0,2.0,43,0.00,,,0.00,weatherlink.com 1.10,2013-11-25 00:40:00,
2013-11-24 19:55:00,33.4,13.0,30.50,ESE,109,0.0,1.0,43,0.00,,,0.00,weatherlink.com 1.10,2013-11-25 00:55:00,
2013-11-24 20:10:00,33.1,12.0,30.50,ESE,109,0.0,1.0,42,0.00,,,0.00,weatherlink.com 1.10,2013-11-25 01:10:00,
2013-11-24 20:25:00,32.9,13.0,30.50,ESE,109,0.0,2.0,44,0.00,,,0.00,weatherlink.com 1.10,2013-11-25 01:25:00,
2013-11-24 20:40:00,32.6,12.0,30.50,ESE,109,0.0,1.0,42,0.00,,,0.00,weatherlink.com 1.10,2013-11-25 01:40:00,
2013-11-24 20:55:00,32.3,12.0,30.51,ESE,109,0.0,1.0,43,0.00,,,0.00,weatherlink.com 1.10,2013-11-25 01:55:00,
2013-11-24 21:10:00,31.9,12.0,30.50,ESE,109,1.0,1.0,44,0.00,,,0.00,weatherlink.com 1.10,2013-11-25 02:10:00,
2013-11-24 21:25:00,31.6,12.0,30.50,ESE,109,0.0,1.0,44,0.00,,,0.00,weatherlink.com 1.10,2013-11-25 02:25:00,
2013-11-24 21:40:00,31.4,14.0,30.49,ESE,109,0.0,1.0,48,0.00,,,0.00,weatherlink.com 1.10,2013-11-25 02:40:00,
2013-11-24 21:56:00,31.1,13.0,30.50,ESE,109,0.0,1.0,48,0.00,,,0.00,weatherlink.com 1.10,2013-11-25 02:56:00,
2013-11-24 22:10:00,30.8,15.0,30.49,ESE,109,0.0,1.0,52,0.00,,,0.00,weatherlink.com 1.10,2013-11-25 03:10:00,
2013-11-24 22:25:00,30.6,13.0,30.50,ENE,59,0.0,2.0,48,0.00,,,0.00,weatherlink.com 1.10,2013-11-25 03:25:00,
2013-11-24 22:40:00,30.4,13.0,30.51,ENE,59,0.0,0.0,49,0.00,,,0.00,weatherlink.com 1.10,2013-11-25 03:40:00,
2013-11-24 22:55:00,29.9,13.0,30.52,ENE,59,0.0,1.0,50,0.00,,,0.00,weatherlink.com 1.10,2013-11-25 03:55:00,
2013-11-24 23:10:00,29.4,14.0,30.53,ENE,59,0.0,0.0,52,0.00,,,0.00,weatherlink.com 1.10,2013-11-25 04:10:00,
2013-11-24 23:25:00,29.3,12.0,30.54,ENE,59,0.0,0.0,48,0.00,,,0.00,weatherlink.com 1.10,2013-11-25 04:25:00,
2013-11-24 23:40:00,29.2,12.0,30.54,ENE,59,0.0,0.0,48,0.00,,,0.00,weatherlink.com 1.10,2013-11-25 04:40:00,
2013-11-24 23:55:00,29.3,17.0,30.55,ENE,59,0.0,0.0,60,0.00,,,0.00,weatherlink.com 1.10,2013-11-25 04:55:00,